メインページ
METAR-TAF:

METAR-TAF

空港 :

Wiarton, オンタリオ州, カナダ

緯度: 44-45N, 経度: 081-06W, 海抜: 222m

現時点の気象観測

当レポートは43分前の18:00(UTC)に作成
南西の風 10kt
気温 27°C
湿度 70%
気圧 1009 hPa
視程: 24.1km
高度1000ftの雲はほとんどない
高度3000ftの雲はほとんどない
高度15000ftの雲はほとんどない
高度25000ftの千切れ雲あり

METAR: CYVV 191800Z 23010KT 15SM FEW010 FEW030 FEW150 BKN250 27/21 A2979 RMK SF1SC1AC1CI5 SF TR AC TR WND ESTD SLP086 DENSITY ALT 2500FT

時間: 14:43 (18:43 UTC)

予報

当レポートは5時間4分前の13:39(UTC)に作成
予報は19日の 14時(UTC)から 19日の 23時(UTC)まで有効
西/南西の風 10kt、最大20ktの突風を伴う
視程: 10km
高度2500ftの千切れ雲あり
高度15000ftの千切れ雲あり
19日の 14時(UTC)から 19日の 17時(UTC)まで一時的に
視程: 10km
高度2000ftの千切れ雲あり
高度4000ftの千切れ雲あり
弱いにわか雨
19日の 1700時(UTC)から
西の風 12kt、最大22ktの突風を伴う
視程: 10km
高度3000ftの曇り
弱いにわか雨
19日の 17時(UTC)から 19日の 23時(UTC)まで一時的に
視程: 6.4km
高度2000ftの曇り
弱いにわか雨, 靄
確率 30%
19日の 17時(UTC)から 19日の 23時(UTC)まで
変向風 15kt、最大30ktの突風を伴う
視程: 1.6km
高度700ftの千切れ雲あり
高度2000ftの曇り, 積乱雲.
激しい雷雨, 大雨, 靄

TAF: CYVV 191339Z 1914/1923 24010G20KT P6SM BKN025 BKN150 TEMPO 1914/1917 P6SM -SHRA BKN020 BKN040 FM191700 26012G22KT P6SM -SHRA OVC030 TEMPO 1917/1923 4SM -SHRA BR OVC020 PROB30 1917/1923 VRB15G30KT 1SM +TSRA BR BKN007 OVC020CB RMK NXT FCST BY 192000Z

4,000以上の空港の気象観測と天気予報(METAR報とTAF報)

利用可能な観測所は地図上に黄色い丸と赤い丸で示す。

丸の上にカーソルを重ねると観測所名を参照できる。

次にクリックすると気象観測と天気予報を参照できる。

マップの切り替え:黒色「×」印の緑ボタンをクリックして拡大、「-」印の緑ボタンをクリックして縮小、緑色の三角印をクリックして隣りの地図に切り替え


METAR-TAF: